Time;durP1;ratioP1;P1;durP2;ratioP2;P2;SDS_P1;SDS_P2;PMS_P1;PMS_P2;Temp;Humidity;BMP_temperature;BMP_pressure;BME280_temperature;BME280_humidity;BME280_pressure;Samples;Min_cycle;Max_cycle;Signal;HPM_P1;HPM_P2
2023/03/02 00:00:45;;;;;;;48.15;24.23;;;;;;;;;;5038133;28;20034;-85
2023/03/02 00:03:13;;;;;;;52.33;26.13;;;;;;;;;;5038564;28;20116;-84
2023/03/02 00:05:40;;;;;;;39.40;21.58;;;;;;;;;;5036810;28;20083;-83
2023/03/02 00:08:08;;;;;;;39.15;22.15;;;;;;;;;;5036723;28;20498;-85
2023/03/02 00:10:34;;;;;;;33.00;17.38;;;;;;;;;;5038313;28;20037;-83
2023/03/02 00:13:00;;;;;;;28.67;14.88;;;;;;;;;;5037177;28;20033;-84
2023/03/02 00:15:25;;;;;;;30.45;16.00;;;;;;;;;;5036535;28;20041;-87
2023/03/02 00:17:51;;;;;;;32.30;16.75;;;;;;;;;;5037209;28;20440;-85
2023/03/02 00:20:16;;;;;;;47.13;25.90;;;;;;;;;;5036623;28;20477;-84
2023/03/02 00:22:44;;;;;;;31.15;16.38;;;;;;;;;;5036314;28;20030;-83
2023/03/02 00:25:11;;;;;;;33.63;17.30;;;;;;;;;;5018633;28;20038;-85
2023/03/02 00:27:37;;;;;;;29.60;17.15;;;;;;;;;;5041833;28;20036;-85
2023/03/02 00:30:03;;;;;;;30.38;15.90;;;;;;;;;;5038992;28;20033;-85
2023/03/02 00:32:29;;;;;;;30.63;16.10;;;;;;;;;;5036535;28;20029;-83
2023/03/02 00:34:54;;;;;;;62.95;16.85;;;;;;;;;;5035441;28;20513;-83
2023/03/02 00:37:20;;;;;;;105.25;16.67;;;;;;;;;;5035380;28;20025;-84
2023/03/02 00:39:45;;;;;;;81.70;17.13;;;;;;;;;;5035356;28;20103;-84
2023/03/02 00:42:11;;;;;;;45.75;16.27;;;;;;;;;;5035896;28;20033;-85
2023/03/02 00:44:36;;;;;;;122.07;17.33;;;;;;;;;;5035357;28;20037;-84
2023/03/02 00:47:02;;;;;;;110.28;17.17;;;;;;;;;;5035232;28;20121;-85
2023/03/02 00:49:28;;;;;;;41.47;16.27;;;;;;;;;;5035864;28;20041;-85
2023/03/02 00:51:53;;;;;;;32.75;15.82;;;;;;;;;;5026466;23;20060;-81
2023/03/02 00:54:19;;;;;;;30.25;14.82;;;;;;;;;;5005477;28;20561;-79
2023/03/02 00:56:44;;;;;;;24.55;13.75;;;;;;;;;;5006566;28;20097;-81
2023/03/02 00:59:27;;;;;;;27.88;13.80;;;;;;;;;;4989863;28;20049;-81
2023/03/02 01:02:00;;;;;;;24.08;12.70;;;;;;;;;;4996928;28;20049;-81
2023/03/02 01:04:38;;;;;;;25.27;13.30;;;;;;;;;;5018748;28;20038;-82
2023/03/02 01:07:12;;;;;;;24.17;13.38;;;;;;;;;;5004358;28;20026;-81
2023/03/02 01:09:40;;;;;;;22.17;12.27;;;;;;;;;;5002504;28;20073;-81
2023/03/02 01:12:10;;;;;;;27.73;13.75;;;;;;;;;;5018948;28;20031;-81
2023/03/02 01:14:41;;;;;;;29.08;13.63;;;;;;;;;;5018480;28;20077;-81
2023/03/02 01:17:08;;;;;;;26.70;13.60;;;;;;;;;;5003195;28;20042;-81
2023/03/02 01:19:34;;;;;;;27.40;14.00;;;;;;;;;;5018537;28;20600;-80
2023/03/02 01:22:00;;;;;;;30.92;15.32;;;;;;;;;;5018841;28;20057;-82
2023/03/02 01:24:26;;;;;;;30.33;15.52;;;;;;;;;;5001732;28;20030;-82
2023/03/02 01:26:52;;;;;;;29.58;15.02;;;;;;;;;;5002693;28;20044;-81
2023/03/02 01:29:18;;;;;;;31.63;15.25;;;;;;;;;;5004273;28;20043;-81
2023/03/02 01:31:43;;;;;;;31.90;16.17;;;;;;;;;;5003999;28;20403;-81
2023/03/02 01:34:09;;;;;;;32.40;15.63;;;;;;;;;;5002394;28;20540;-81
2023/03/02 01:36:34;;;;;;;33.10;16.63;;;;;;;;;;5003935;28;20030;-81
2023/03/02 01:39:00;;;;;;;33.55;16.27;;;;;;;;;;5018271;28;20101;-80
2023/03/02 01:41:26;;;;;;;30.85;15.85;;;;;;;;;;5002420;28;20038;-81
2023/03/02 01:43:51;;;;;;;27.50;15.10;;;;;;;;;;5018307;28;20042;-82
2023/03/02 01:46:17;;;;;;;28.77;14.70;;;;;;;;;;5019134;28;20081;-82
2023/03/02 01:48:58;;;;;;;26.38;14.07;;;;;;;;;;5006204;28;20038;-81
2023/03/02 01:51:47;;;;;;;31.52;15.63;;;;;;;;;;5014198;28;20106;-82
2023/03/02 01:54:21;;;;;;;32.47;15.68;;;;;;;;;;5005759;28;20038;-82
2023/03/02 01:56:51;;;;;;;27.90;14.77;;;;;;;;;;5005858;28;20048;-82
2023/03/02 01:59:20;;;;;;;29.58;15.00;;;;;;;;;;5018347;28;20060;-82
2023/03/02 02:01:50;;;;;;;30.90;15.70;;;;;;;;;;5025241;28;20407;-82
2023/03/02 02:04:16;;;;;;;30.35;15.05;;;;;;;;;;5024381;28;20033;-81
2023/03/02 02:06:58;;;;;;;33.20;15.68;;;;;;;;;;5009285;28;20053;-82
2023/03/02 02:09:25;;;;;;;30.45;14.85;;;;;;;;;;5026698;28;20033;-82
2023/03/02 02:11:51;;;;;;;31.27;15.32;;;;;;;;;;5010882;28;20505;-81
2023/03/02 02:14:17;;;;;;;25.95;14.13;;;;;;;;;;5027136;28;20053;-82
2023/03/02 02:16:42;;;;;;;29.63;14.50;;;;;;;;;;5043700;28;20057;-82
2023/03/02 02:19:40;;;;;;;26.67;14.25;;;;;;;;;;5026658;28;20026;-82
2023/03/02 02:22:08;;;;;;;33.08;14.93;;;;;;;;;;5020585;28;20049;-82
2023/03/02 02:24:42;;;;;;;27.95;14.32;;;;;;;;;;5009395;28;20034;-82
2023/03/02 02:27:09;;;;;;;29.58;15.10;;;;;;;;;;5025664;28;20172;-82
2023/03/02 02:29:44;;;;;;;30.80;14.63;;;;;;;;;;5024467;28;20085;-81
2023/03/02 02:32:29;;;;;;;28.35;14.00;;;;;;;;;;5025073;28;20049;-82
2023/03/02 02:35:03;;;;;;;27.83;14.10;;;;;;;;;;5025842;28;20029;-81
2023/03/02 02:37:44;;;;;;;30.75;14.75;;;;;;;;;;5026565;28;20101;-81
2023/03/02 02:40:14;;;;;;;29.13;14.27;;;;;;;;;;5025947;28;20033;-81
2023/03/02 02:42:46;;;;;;;25.35;13.98;;;;;;;;;;5026007;28;20041;-82
2023/03/02 02:45:22;;;;;;;30.70;15.48;;;;;;;;;;5025714;28;20034;-82
2023/03/02 02:47:49;;;;;;;26.73;14.30;;;;;;;;;;5009650;28;20037;-82
2023/03/02 02:50:21;;;;;;;27.88;14.80;;;;;;;;;;5025322;28;20034;-82
2023/03/02 02:52:56;;;;;;;30.85;15.07;;;;;;;;;;5025769;28;20041;-82
2023/03/02 02:55:24;;;;;;;31.65;14.60;;;;;;;;;;5025605;28;20038;-82
2023/03/02 02:57:54;;;;;;;26.85;13.93;;;;;;;;;;5025353;28;20459;-82
2023/03/02 03:00:22;;;;;;;30.10;15.45;;;;;;;;;;5010169;28;20056;-82
2023/03/02 03:02:55;;;;;;;29.85;14.80;;;;;;;;;;5025661;28;20043;-82
2023/03/02 03:05:21;;;;;;;25.35;13.05;;;;;;;;;;5024957;28;20033;-81
2023/03/02 03:07:46;;;;;;;27.60;12.48;;;;;;;;;;5025901;28;20042;-82
2023/03/02 03:10:27;;;;;;;25.63;12.98;;;;;;;;;;5024691;28;20068;-82
2023/03/02 03:12:53;;;;;;;25.88;12.23;;;;;;;;;;5008954;28;20049;-82
2023/03/02 03:15:20;;;;;;;27.73;14.10;;;;;;;;;;5024744;28;20414;-82
2023/03/02 03:17:52;;;;;;;27.00;13.82;;;;;;;;;;5041432;28;20053;-82
2023/03/02 03:20:18;;;;;;;26.90;12.82;;;;;;;;;;5026437;28;20060;-82
2023/03/02 03:22:44;;;;;;;23.85;12.30;;;;;;;;;;5026082;28;20054;-82
2023/03/02 03:25:14;;;;;;;28.92;14.48;;;;;;;;;;5008530;28;20065;-82
2023/03/02 03:27:44;;;;;;;30.17;13.82;;;;;;;;;;5024740;28;20037;-82
2023/03/02 03:30:12;;;;;;;26.88;13.10;;;;;;;;;;5024726;28;20069;-81
2023/03/02 03:32:39;;;;;;;29.38;13.88;;;;;;;;;;5041304;28;20101;-81
2023/03/02 03:35:07;;;;;;;30.63;14.75;;;;;;;;;;5008734;28;20034;-81
2023/03/02 03:37:34;;;;;;;29.50;14.68;;;;;;;;;;5024959;28;20080;-81
2023/03/02 03:39:59;;;;;;;31.23;14.75;;;;;;;;;;5024661;28;20030;-81
2023/03/02 03:42:26;;;;;;;30.90;14.73;;;;;;;;;;5023164;28;20030;-80
2023/03/02 03:44:53;;;;;;;28.42;13.95;;;;;;;;;;5023796;28;20037;-81
2023/03/02 03:47:20;;;;;;;31.00;14.45;;;;;;;;;;5024257;28;20030;-81
2023/03/02 03:49:46;;;;;;;31.60;13.93;;;;;;;;;;5025051;28;20129;-81
2023/03/02 03:52:11;;;;;;;25.63;13.93;;;;;;;;;;5024294;28;20087;-81
2023/03/02 03:54:37;;;;;;;26.60;13.63;;;;;;;;;;5024829;28;20486;-81
2023/03/02 03:57:03;;;;;;;27.85;13.88;;;;;;;;;;5007944;28;20049;-81
2023/03/02 03:59:29;;;;;;;30.67;14.48;;;;;;;;;;5023592;28;20038;-81
2023/03/02 04:02:00;;;;;;;25.80;12.95;;;;;;;;;;5041190;28;20101;-82
2023/03/02 04:04:34;;;;;;;29.75;13.85;;;;;;;;;;5016897;28;20034;-81
2023/03/02 04:07:04;;;;;;;27.23;13.07;;;;;;;;;;5024125;28;20105;-81
2023/03/02 04:09:36;;;;;;;27.75;14.00;;;;;;;;;;5023322;28;20055;-82
2023/03/02 04:12:03;;;;;;;27.08;13.48;;;;;;;;;;5024471;28;20057;-81
2023/03/02 04:14:29;;;;;;;30.58;13.15;;;;;;;;;;5024010;28;20055;-81
2023/03/02 04:16:55;;;;;;;37.08;15.25;;;;;;;;;;5007770;28;20053;-81
2023/03/02 04:19:23;;;;;;;33.13;15.45;;;;;;;;;;5023859;28;20533;-81
2023/03/02 04:21:53;;;;;;;31.77;15.00;;;;;;;;;;5023809;28;20034;-81
2023/03/02 04:24:21;;;;;;;34.92;15.30;;;;;;;;;;5022976;28;20382;-80
2023/03/02 04:26:49;;;;;;;36.40;15.98;;;;;;;;;;5007035;28;20032;-81
2023/03/02 04:29:15;;;;;;;44.65;15.95;;;;;;;;;;5024011;28;20087;-81
2023/03/02 04:31:41;;;;;;;41.83;16.77;;;;;;;;;;5023504;28;20033;-81
2023/03/02 04:34:07;;;;;;;46.10;15.43;;;;;;;;;;5023694;28;20414;-81
2023/03/02 04:36:37;;;;;;;33.15;15.15;;;;;;;;;;5007126;28;20058;-81
2023/03/02 04:39:06;;;;;;;35.50;15.52;;;;;;;;;;5039625;28;20128;-81
2023/03/02 04:41:31;;;;;;;35.78;15.55;;;;;;;;;;5007251;28;20034;-81
2023/03/02 04:43:57;;;;;;;36.30;15.63;;;;;;;;;;5024837;28;20121;-79
2023/03/02 04:46:27;;;;;;;34.47;15.48;;;;;;;;;;5023529;28;20037;-81
2023/03/02 04:48:53;;;;;;;30.95;15.45;;;;;;;;;;5039383;28;20045;-81
2023/03/02 04:51:28;;;;;;;28.45;13.70;;;;;;;;;;5006639;28;20030;-81
2023/03/02 04:53:59;;;;;;;28.73;13.52;;;;;;;;;;5025368;28;20034;-81
2023/03/02 04:56:25;;;;;;;31.77;14.52;;;;;;;;;;5007148;28;20037;-81
2023/03/02 04:58:50;;;;;;;29.13;14.23;;;;;;;;;;5024998;28;20030;-81
2023/03/02 05:01:17;;;;;;;29.65;14.27;;;;;;;;;;5024527;28;20502;-81
2023/03/02 05:03:43;;;;;;;28.73;13.23;;;;;;;;;;5023206;28;20041;-81
2023/03/02 05:06:09;;;;;;;29.80;14.73;;;;;;;;;;5022115;28;20030;-81
2023/03/02 05:08:34;;;;;;;28.60;14.43;;;;;;;;;;5023711;28;20037;-81
2023/03/02 05:11:00;;;;;;;27.38;13.68;;;;;;;;;;5007533;28;20466;-81
2023/03/02 05:13:26;;;;;;;27.48;15.13;;;;;;;;;;5040151;28;20061;-81
2023/03/02 05:15:52;;;;;;;28.95;15.35;;;;;;;;;;5023221;28;20037;-81
2023/03/02 05:18:19;;;;;;;26.92;15.07;;;;;;;;;;5023286;28;20034;-81
2023/03/02 05:20:45;;;;;;;30.75;15.75;;;;;;;;;;5007832;28;20080;-81
2023/03/02 05:23:22;;;;;;;32.00;16.63;;;;;;;;;;5028018;28;20034;-81
2023/03/02 05:25:53;;;;;;;28.00;14.90;;;;;;;;;;5028243;28;20049;-82
2023/03/02 05:28:20;;;;;;;28.52;15.18;;;;;;;;;;5010894;28;20030;-81
2023/03/02 05:30:46;;;;;;;24.67;13.80;;;;;;;;;;5011399;28;20033;-81
2023/03/02 05:33:13;;;;;;;28.98;14.30;;;;;;;;;;5027372;28;20061;-81
2023/03/02 05:35:38;;;;;;;28.02;13.75;;;;;;;;;;5028968;28;20029;-81
2023/03/02 05:38:04;;;;;;;33.05;14.05;;;;;;;;;;5010510;28;20034;-81
2023/03/02 05:40:30;;;;;;;27.02;13.52;;;;;;;;;;5043230;28;20022;-81
2023/03/02 05:42:56;;;;;;;28.23;13.45;;;;;;;;;;5026557;28;20045;-81
2023/03/02 05:45:28;;;;;;;27.15;13.85;;;;;;;;;;5025877;28;20026;-81
2023/03/02 05:47:54;;;;;;;26.07;13.13;;;;;;;;;;5026588;28;20037;-81
2023/03/02 05:50:20;;;;;;;28.02;14.82;;;;;;;;;;5026817;28;20030;-81
2023/03/02 05:52:46;;;;;;;28.98;14.98;;;;;;;;;;5028637;28;20059;-80
2023/03/02 05:55:13;;;;;;;32.70;14.88;;;;;;;;;;5028300;28;20037;-81
2023/03/02 05:57:39;;;;;;;27.35;13.70;;;;;;;;;;5027729;28;20042;-81
2023/03/02 06:00:05;;;;;;;28.45;15.20;;;;;;;;;;5027395;28;20036;-81
2023/03/02 06:02:38;;;;;;;30.13;15.23;;;;;;;;;;5027354;28;20101;-81
2023/03/02 06:05:15;;;;;;;29.48;14.20;;;;;;;;;;5026448;28;20038;-81
2023/03/02 06:07:41;;;;;;;26.38;13.27;;;;;;;;;;5026566;28;20105;-81
2023/03/02 06:10:09;;;;;;;27.27;13.20;;;;;;;;;;5025970;28;20048;-81
2023/03/02 06:12:35;;;;;;;30.23;14.43;;;;;;;;;;5025917;28;20033;-81
2023/03/02 06:15:00;;;;;;;27.55;13.57;;;;;;;;;;5025487;28;20488;-81
2023/03/02 06:17:26;;;;;;;35.15;16.73;;;;;;;;;;5027438;28;20072;-82
2023/03/02 06:19:51;;;;;;;41.50;17.77;;;;;;;;;;5027084;28;20033;-81
2023/03/02 06:22:17;;;;;;;48.05;18.85;;;;;;;;;;5042464;28;20285;-81
2023/03/02 06:24:43;;;;;;;42.90;18.65;;;;;;;;;;5025300;28;20033;-81
2023/03/02 06:27:08;;;;;;;56.60;17.33;;;;;;;;;;5026294;28;20058;-81
2023/03/02 06:29:34;;;;;;;54.15;18.23;;;;;;;;;;5027613;28;20049;-81
2023/03/02 06:31:59;;;;;;;95.63;16.88;;;;;;;;;;5009410;28;20038;-81
2023/03/02 06:34:25;;;;;;;44.25;17.45;;;;;;;;;;5024253;28;20467;-81
2023/03/02 06:36:50;;;;;;;60.97;18.48;;;;;;;;;;5009071;28;20042;-81
2023/03/02 06:39:16;;;;;;;53.67;17.15;;;;;;;;;;5025383;28;20029;-81
2023/03/02 06:41:43;;;;;;;94.00;17.55;;;;;;;;;;5024465;28;20071;-81
2023/03/02 06:44:08;;;;;;;39.55;15.90;;;;;;;;;;5026813;28;20189;-81
2023/03/02 06:46:34;;;;;;;44.88;18.90;;;;;;;;;;5027676;28;20264;-81
2023/03/02 06:49:00;;;;;;;44.50;18.95;;;;;;;;;;5042547;28;20034;-82
2023/03/02 06:51:25;;;;;;;40.00;17.60;;;;;;;;;;5024600;28;20033;-81
2023/03/02 06:53:50;;;;;;;46.30;17.85;;;;;;;;;;5030228;23;20161;-84
2023/03/02 06:56:16;;;;;;;39.72;15.25;;;;;;;;;;5000209;28;20642;-83
2023/03/02 06:58:41;;;;;;;60.35;15.02;;;;;;;;;;5000669;28;20128;-83
2023/03/02 07:01:07;;;;;;;49.35;16.33;;;;;;;;;;5018070;28;20508;-80
2023/03/02 07:03:34;;;;;;;37.92;16.77;;;;;;;;;;4985458;28;20089;-83
2023/03/02 07:06:00;;;;;;;48.75;20.27;;;;;;;;;;5016492;28;20044;-83
2023/03/02 07:08:28;;;;;;;43.75;19.80;;;;;;;;;;5017234;28;20038;-86
2023/03/02 07:10:54;;;;;;;43.95;19.60;;;;;;;;;;5019980;28;20075;-82
2023/03/02 07:13:19;;;;;;;39.90;18.95;;;;;;;;;;5017656;28;20125;-84
2023/03/02 07:15:45;;;;;;;32.22;16.70;;;;;;;;;;5016816;28;20084;-86
2023/03/02 07:18:10;;;;;;;37.83;16.88;;;;;;;;;;5018203;28;20034;-82
2023/03/02 07:20:37;;;;;;;54.55;22.30;;;;;;;;;;5018234;28;20042;-81
2023/03/02 07:23:03;;;;;;;55.42;21.30;;;;;;;;;;5001752;28;20124;-82
2023/03/02 07:25:29;;;;;;;47.33;21.20;;;;;;;;;;5017816;28;20048;-85
2023/03/02 07:27:55;;;;;;;61.30;21.48;;;;;;;;;;5018914;28;20033;-82
2023/03/02 07:30:20;;;;;;;76.57;22.70;;;;;;;;;;5018412;28;20111;-82
2023/03/02 07:32:46;;;;;;;70.13;20.05;;;;;;;;;;5015294;28;20549;-81
2023/03/02 07:35:12;;;;;;;77.05;19.30;;;;;;;;;;5013686;28;20045;-81
2023/03/02 07:37:38;;;;;;;98.38;18.17;;;;;;;;;;5014303;28;20061;-83
2023/03/02 07:40:05;;;;;;;44.15;17.33;;;;;;;;;;5014007;28;20041;-82
2023/03/02 07:42:31;;;;;;;43.17;16.85;;;;;;;;;;5014794;28;20038;-82
2023/03/02 07:44:59;;;;;;;46.78;16.63;;;;;;;;;;5024907;28;20056;-83
2023/03/02 07:47:25;;;;;;;71.30;18.92;;;;;;;;;;5017705;28;20084;-82
2023/03/02 07:49:50;;;;;;;41.00;17.83;;;;;;;;;;5017636;28;20053;-84
2023/03/02 07:52:16;;;;;;;93.32;19.02;;;;;;;;;;5017471;28;20033;-85
2023/03/02 07:54:42;;;;;;;48.45;16.30;;;;;;;;;;5016533;28;20449;-84
2023/03/02 07:57:07;;;;;;;75.25;17.75;;;;;;;;;;5016805;28;20030;-84
2023/03/02 07:59:33;;;;;;;47.67;17.20;;;;;;;;;;5017356;28;20041;-82
2023/03/02 08:01:58;;;;;;;37.63;16.80;;;;;;;;;;5016052;28;20033;-84
2023/03/02 08:04:24;;;;;;;43.30;18.77;;;;;;;;;;5015991;28;20423;-84
2023/03/02 08:06:50;;;;;;;46.22;18.98;;;;;;;;;;5015843;28;20380;-84
2023/03/02 08:09:16;;;;;;;32.70;15.60;;;;;;;;;;5016362;28;20037;-85
2023/03/02 08:11:41;;;;;;;32.30;16.48;;;;;;;;;;5016621;28;20566;-84
2023/03/02 08:14:07;;;;;;;32.38;16.27;;;;;;;;;;5014991;28;20030;-82
2023/03/02 08:16:33;;;;;;;41.80;18.10;;;;;;;;;;5017027;28;20038;-86
2023/03/02 08:18:58;;;;;;;39.20;18.75;;;;;;;;;;5015295;28;20072;-84
2023/03/02 08:21:25;;;;;;;45.60;19.45;;;;;;;;;;5015211;28;20065;-83
2023/03/02 08:23:50;;;;;;;58.08;18.30;;;;;;;;;;5016211;28;20033;-84
2023/03/02 08:26:18;;;;;;;39.30;18.67;;;;;;;;;;5016809;28;20406;-85
2023/03/02 08:28:44;;;;;;;44.00;20.88;;;;;;;;;;5016152;28;20490;-86
2023/03/02 08:31:10;;;;;;;56.05;24.13;;;;;;;;;;5014422;28;20087;-85
2023/03/02 08:33:35;;;;;;;50.83;24.10;;;;;;;;;;5015916;28;20030;-83
2023/03/02 08:36:04;;;;;;;51.30;23.13;;;;;;;;;;5016273;28;20026;-85
2023/03/02 08:38:31;;;;;;;47.13;20.75;;;;;;;;;;5016516;28;20038;-84
2023/03/02 08:40:57;;;;;;;62.13;16.95;;;;;;;;;;5015756;28;20121;-84
2023/03/02 08:43:25;;;;;;;32.92;16.27;;;;;;;;;;5016732;28;20584;-84
2023/03/02 08:45:52;;;;;;;36.50;15.93;;;;;;;;;;5015900;28;20176;-85
2023/03/02 08:48:18;;;;;;;29.80;16.33;;;;;;;;;;5015830;28;20034;-85
2023/03/02 08:50:44;;;;;;;35.72;15.82;;;;;;;;;;5015912;28;20034;-85
2023/03/02 08:53:09;;;;;;;33.25;16.15;;;;;;;;;;5016341;28;20094;-84
2023/03/02 08:55:35;;;;;;;31.33;15.40;;;;;;;;;;5014261;28;20033;-84
2023/03/02 08:58:02;;;;;;;33.13;15.32;;;;;;;;;;5016975;28;20056;-83
2023/03/02 09:00:28;;;;;;;28.85;15.43;;;;;;;;;;5011147;28;20034;-82
2023/03/02 09:02:53;;;;;;;30.88;16.55;;;;;;;;;;5019620;28;20046;-82
2023/03/02 09:05:19;;;;;;;33.03;17.45;;;;;;;;;;5019396;28;20057;-83
2023/03/02 09:07:44;;;;;;;41.63;20.05;;;;;;;;;;5017477;28;20042;-85
2023/03/02 09:10:10;;;;;;;40.33;19.58;;;;;;;;;;4998305;28;20072;-82
2023/03/02 09:12:36;;;;;;;35.03;17.27;;;;;;;;;;5015592;28;20121;-82
2023/03/02 09:15:01;;;;;;;33.83;16.52;;;;;;;;;;5013924;28;20034;-82
2023/03/02 09:17:27;;;;;;;30.00;16.50;;;;;;;;;;5015114;28;20034;-82
2023/03/02 09:19:52;;;;;;;33.67;16.60;;;;;;;;;;5016539;28;20042;-82
2023/03/02 09:22:18;;;;;;;27.25;14.95;;;;;;;;;;5015450;28;20026;-82
2023/03/02 09:24:43;;;;;;;29.45;15.93;;;;;;;;;;5014285;28;20458;-83
2023/03/02 09:27:09;;;;;;;31.58;16.58;;;;;;;;;;5015311;28;20037;-82
2023/03/02 09:29:34;;;;;;;30.13;15.57;;;;;;;;;;5014113;28;20069;-81
2023/03/02 09:32:00;;;;;;;28.55;15.77;;;;;;;;;;5015467;28;20089;-82
2023/03/02 09:34:25;;;;;;;26.05;15.43;;;;;;;;;;4996942;28;20034;-83
2023/03/02 09:36:51;;;;;;;25.38;14.93;;;;;;;;;;5014705;28;20037;-83
2023/03/02 09:39:18;;;;;;;27.20;15.30;;;;;;;;;;4997035;28;20057;-83
2023/03/02 09:41:43;;;;;;;28.00;14.73;;;;;;;;;;5015944;28;20046;-83
2023/03/02 09:44:14;;;;;;;28.85;15.98;;;;;;;;;;5014396;28;20463;-81
2023/03/02 09:47:03;;;;;;;28.08;14.52;;;;;;;;;;5015386;28;20037;-82
2023/03/02 09:50:02;;;;;;;23.70;13.98;;;;;;;;;;5014404;28;20080;-81
2023/03/02 09:52:30;;;;;;;23.55;13.50;;;;;;;;;;5016695;28;20498;-82
2023/03/02 09:55:00;;;;;;;23.92;13.25;;;;;;;;;;5017391;28;20033;-83
2023/03/02 09:57:33;;;;;;;24.38;13.75;;;;;;;;;;5016507;28;20186;-85
2023/03/02 10:00:04;;;;;;;;;;;;;;;;;;5015518;28;20045;-81
2023/03/02 10:02:47;;;;;;;19.35;10.95;;;;;;;;;;5013373;28;19924;-84
2023/03/02 10:05:26;;;;;;;21.35;11.90;;;;;;;;;;5012639;28;20057;-84
2023/03/02 10:07:52;;;;;;;23.38;12.52;;;;;;;;;;5012231;28;20038;-84
2023/03/02 10:10:31;;;;;;;23.17;12.68;;;;;;;;;;5014239;28;20042;-83
2023/03/02 10:13:41;;;;;;;22.83;12.70;;;;;;;;;;5013710;28;20140;-83
2023/03/02 10:16:36;;;;;;;23.30;12.52;;;;;;;;;;5016722;28;20480;-82
2023/03/02 10:19:20;;;;;;;23.10;13.05;;;;;;;;;;5013342;28;20033;-82
2023/03/02 10:21:48;;;;;;;;;;;;;;;;;;5026675;28;20697;-83
2023/03/02 10:24:39;;;;;;;22.90;12.20;;;;;;;;;;5018398;28;19957;-82
2023/03/02 10:27:27;;;;;;;21.42;11.25;;;;;;;;;;5018881;28;20046;-83
2023/03/02 10:30:02;;;;;;;19.17;10.25;;;;;;;;;;5018513;28;20088;-84
2023/03/02 10:32:51;;;;;;;22.42;10.73;;;;;;;;;;4999869;28;20034;-85
2023/03/02 10:35:17;;;;;;;16.65;9.77;;;;;;;;;;5009755;28;20056;-85
2023/03/02 10:37:42;;;;;;;19.63;10.10;;;;;;;;;;5017641;28;20069;-85
2023/03/02 10:40:28;;;;;;;15.93;8.88;;;;;;;;;;5016797;28;20117;-84
2023/03/02 10:42:55;;;;;;;16.88;9.07;;;;;;;;;;5018210;28;20088;-84
2023/03/02 10:45:29;;;;;;;15.82;8.15;;;;;;;;;;5018740;28;20022;-84
2023/03/02 10:48:07;;;;;;;14.15;8.38;;;;;;;;;;5017810;28;20041;-83
2023/03/02 10:50:34;;;;;;;17.42;9.40;;;;;;;;;;5018922;28;20038;-85
2023/03/02 10:53:00;;;;;;;14.93;8.98;;;;;;;;;;5017624;28;20034;-83
2023/03/02 10:55:26;;;;;;;15.90;9.10;;;;;;;;;;5017053;28;20073;-84
2023/03/02 10:58:05;;;;;;;15.88;8.93;;;;;;;;;;5017304;28;20042;-84
2023/03/02 11:00:32;;;;;;;18.73;8.80;;;;;;;;;;5018609;28;20257;-84
2023/03/02 11:03:04;;;;;;;14.75;8.20;;;;;;;;;;5000896;28;20034;-85
2023/03/02 11:05:37;;;;;;;13.90;9.15;;;;;;;;;;5018375;28;20040;-83
2023/03/02 11:08:04;;;;;;;17.83;9.98;;;;;;;;;;5018701;28;20040;-85
2023/03/02 11:10:35;;;;;;;35.70;21.45;;;;;;;;;;5018614;28;20397;-86
2023/03/02 11:13:05;;;;;;;20.60;12.93;;;;;;;;;;5018728;28;20116;-87
2023/03/02 11:15:42;;;;;;;22.98;12.43;;;;;;;;;;5017927;28;20398;-87
2023/03/02 11:18:24;;;;;;;18.52;10.50;;;;;;;;;;5017820;28;20137;-86
2023/03/02 11:20:58;;;;;;;19.83;12.10;;;;;;;;;;5018263;28;20041;-85
2023/03/02 11:23:39;;;;;;;42.72;27.05;;;;;;;;;;4999005;28;20550;-83
2023/03/02 11:26:12;;;;;;;25.80;15.05;;;;;;;;;;5019173;28;20092;-84
2023/03/02 11:29:00;;;;;;;18.70;10.38;;;;;;;;;;5015908;28;20037;-83
2023/03/02 11:31:49;;;;;;;16.05;9.48;;;;;;;;;;5016308;28;20155;-83
2023/03/02 11:34:33;;;;;;;15.48;9.15;;;;;;;;;;5012580;28;20532;-84
2023/03/02 11:37:19;;;;;;;18.80;10.02;;;;;;;;;;5023705;28;20062;-83
2023/03/02 11:40:00;;;;;;;17.55;9.38;;;;;;;;;;5017245;28;20041;-87
2023/03/02 11:42:44;;;;;;;17.52;9.73;;;;;;;;;;5017949;28;20042;-83
2023/03/02 11:45:12;;;;;;;17.70;9.57;;;;;;;;;;5016587;28;20036;-85
2023/03/02 11:47:39;;;;;;;16.45;9.50;;;;;;;;;;5015931;28;20040;-84
2023/03/02 11:50:09;;;;;;;16.23;8.95;;;;;;;;;;5016020;28;20561;-83
2023/03/02 11:52:38;;;;;;;15.48;9.00;;;;;;;;;;4999044;28;20045;-85
2023/03/02 11:55:16;;;;;;;22.58;12.45;;;;;;;;;;5016494;28;20044;-83
2023/03/02 11:57:48;;;;;;;25.90;13.70;;;;;;;;;;5016216;28;20038;-83
2023/03/02 12:00:14;;;;;;;21.20;11.23;;;;;;;;;;5015173;28;20034;-85
2023/03/02 12:02:39;;;;;;;15.80;10.00;;;;;;;;;;5016418;28;20037;-83
2023/03/02 12:05:27;;;;;;;19.20;10.75;;;;;;;;;;5013818;28;20049;-84
2023/03/02 12:08:22;;;;;;;15.75;9.20;;;;;;;;;;5015435;28;20416;-83
2023/03/02 12:11:17;;;;;;;15.02;9.00;;;;;;;;;;5003795;28;20475;-83
2023/03/02 12:13:57;;;;;;;;;;;;;;;;;;5015760;28;20030;-82
2023/03/02 12:16:33;;;;;;;14.70;8.10;;;;;;;;;;5015060;28;19913;-84
2023/03/02 12:19:23;;;;;;;14.35;9.15;;;;;;;;;;5013863;28;20052;-84
2023/03/02 12:21:56;;;;;;;14.80;8.70;;;;;;;;;;4997690;28;20033;-85
2023/03/02 12:24:31;;;;;;;16.98;8.85;;;;;;;;;;4997003;28;20048;-85
2023/03/02 12:27:11;;;;;;;14.25;8.75;;;;;;;;;;5015878;28;20038;-84
2023/03/02 12:29:43;;;;;;;14.80;8.50;;;;;;;;;;5015205;28;20037;-83
2023/03/02 12:32:10;;;;;;;17.00;8.43;;;;;;;;;;5015588;28;20026;-83
2023/03/02 12:34:57;;;;;;;14.52;7.90;;;;;;;;;;5016547;28;20474;-84
2023/03/02 12:37:45;;;;;;;13.27;7.57;;;;;;;;;;5012659;28;20455;-84
2023/03/02 12:40:29;;;;;;;14.38;9.10;;;;;;;;;;5012442;28;20192;-84
2023/03/02 12:42:57;;;;;;;15.27;8.55;;;;;;;;;;5013816;28;20044;-84
2023/03/02 12:46:00;;;;;;;16.75;8.50;;;;;;;;;;5013302;28;20022;-84
2023/03/02 12:48:58;;;;;;;15.32;8.68;;;;;;;;;;5013072;28;20045;-82
2023/03/02 12:51:27;;;;;;;14.25;8.48;;;;;;;;;;4985607;28;20052;-82
2023/03/02 12:56:29;;;;;;;15.52;8.40;;;;;;;;;;4996434;28;20050;-81
2023/03/02 12:58:54;;;;;;;16.50;8.88;;;;;;;;;;4983000;28;20081;-81
2023/03/02 13:01:23;;;;;;;16.23;9.25;;;;;;;;;;4968167;28;20038;-81
2023/03/02 13:03:49;;;;;;;15.32;8.93;;;;;;;;;;4983859;28;20133;-80
2023/03/02 13:06:16;;;;;;;14.60;9.05;;;;;;;;;;4964878;29;20044;-81
2023/03/02 13:08:44;;;;;;;15.02;9.10;;;;;;;;;;4965743;28;20043;-81
2023/03/02 13:11:10;;;;;;;17.52;9.18;;;;;;;;;;4948305;29;20039;-81
2023/03/02 13:13:42;;;;;;;14.27;8.90;;;;;;;;;;4948686;29;20039;-81
2023/03/02 13:16:29;;;;;;;15.45;9.00;;;;;;;;;;4965547;28;20035;-83
2023/03/02 13:18:58;;;;;;;14.15;9.25;;;;;;;;;;4931572;29;20039;-81
2023/03/02 13:21:29;;;;;;;14.73;8.80;;;;;;;;;;4965281;29;20534;-81
2023/03/02 13:23:55;;;;;;;14.82;8.60;;;;;;;;;;4979050;28;20039;-80
2023/03/02 13:26:31;;;;;;;10.77;7.75;;;;;;;;;;4947428;29;20035;-80
2023/03/02 13:29:06;;;;;;;14.50;7.60;;;;;;;;;;4964899;29;20043;-81
2023/03/02 13:31:33;;;;;;;13.35;7.97;;;;;;;;;;4964467;29;20490;-82
2023/03/02 13:33:59;;;;;;;11.65;7.28;;;;;;;;;;4946249;28;20512;-81
2023/03/02 13:36:34;;;;;;;13.95;7.50;;;;;;;;;;4945807;29;20035;-81
2023/03/02 13:39:00;;;;;;;13.20;7.70;;;;;;;;;;4979222;28;20035;-81
2023/03/02 13:41:31;;;;;;;14.52;7.97;;;;;;;;;;4964371;28;20067;-80
2023/03/02 13:43:58;;;;;;;14.35;7.95;;;;;;;;;;4951423;28;20066;-79
2023/03/02 13:46:36;;;;;;;52.55;30.30;;;;;;;;;;4935796;29;20063;-81
2023/03/02 13:49:08;;;;;;;40.05;22.42;;;;;;;;;;4966244;29;20420;-83
2023/03/02 13:51:39;;;;;;;14.10;8.60;;;;;;;;;;4964444;28;20071;-83
2023/03/02 13:54:20;;;;;;;13.27;7.93;;;;;;;;;;4948486;28;20399;-82
2023/03/02 13:56:45;;;;;;;12.20;7.75;;;;;;;;;;4948292;29;20099;-83
2023/03/02 13:59:18;;;;;;;16.55;8.27;;;;;;;;;;4947935;29;20503;-83
2023/03/02 14:01:44;;;;;;;13.90;7.47;;;;;;;;;;4964725;28;20047;-82
2023/03/02 14:04:11;;;;;;;12.85;7.93;;;;;;;;;;4946823;28;20074;-82
2023/03/02 14:06:36;;;;;;;13.65;8.43;;;;;;;;;;4963946;28;20043;-82
2023/03/02 14:09:02;;;;;;;13.38;8.05;;;;;;;;;;4946920;29;20094;-82
2023/03/02 14:11:36;;;;;;;12.75;8.02;;;;;;;;;;4963320;28;20054;-83
2023/03/02 14:14:03;;;;;;;15.50;8.70;;;;;;;;;;4946911;28;20504;-80
2023/03/02 14:16:29;;;;;;;14.02;8.35;;;;;;;;;;4963073;28;20035;-83
2023/03/02 14:18:55;;;;;;;13.65;8.65;;;;;;;;;;4964896;29;20059;-81
2023/03/02 14:21:24;;;;;;;15.43;8.48;;;;;;;;;;4964206;29;20039;-82
2023/03/02 14:23:51;;;;;;;18.85;8.82;;;;;;;;;;4946382;28;20122;-83
2023/03/02 14:26:33;;;;;;;16.33;8.45;;;;;;;;;;4980404;28;20031;-83
2023/03/02 14:29:26;;;;;;;15.30;9.30;;;;;;;;;;4966129;28;20042;-82
2023/03/02 14:31:58;;;;;;;16.98;10.68;;;;;;;;;;4962990;28;20404;-83
2023/03/02 14:34:25;;;;;;;17.73;10.17;;;;;;;;;;4966574;28;20043;-83
2023/03/02 14:36:56;;;;;;;15.60;9.75;;;;;;;;;;4962734;29;20675;-83
2023/03/02 14:39:29;;;;;;;16.42;9.07;;;;;;;;;;4944080;29;20035;-82